createdAt,value
2023-02-15T00:00:15.988Z,1024.35
2023-02-15T00:01:15.952Z,1024.38
2023-02-15T00:02:15.953Z,1024.32
2023-02-15T00:03:17.120Z,1024.32
2023-02-15T00:04:16.031Z,1024.32
2023-02-15T00:05:15.911Z,1024.31
2023-02-15T00:06:15.919Z,1024.35
2023-02-15T00:07:16.735Z,1024.27
2023-02-15T00:08:16.625Z,1024.27
2023-02-15T00:09:15.938Z,1024.26
2023-02-15T00:10:15.898Z,1024.27
2023-02-15T00:11:16.835Z,1024.24
2023-02-15T00:12:15.803Z,1024.22
2023-02-15T00:13:16.387Z,1024.20
2023-02-15T00:14:15.813Z,1024.23
2023-02-15T00:15:15.826Z,1024.25
2023-02-15T00:16:15.840Z,1024.22
2023-02-15T00:17:15.746Z,1024.21
2023-02-15T00:18:15.735Z,1024.22
2023-02-15T00:19:15.776Z,1024.22
2023-02-15T00:20:15.738Z,1024.22
2023-02-15T00:21:15.745Z,1024.19
2023-02-15T00:22:15.814Z,1024.21
2023-02-15T00:23:15.806Z,1024.16
2023-02-15T00:24:15.696Z,1024.14
2023-02-15T00:25:15.694Z,1024.18
2023-02-15T00:26:15.675Z,1024.17
2023-02-15T00:27:15.644Z,1024.11
2023-02-15T00:28:15.603Z,1024.12
2023-02-15T00:29:15.589Z,1024.15
2023-02-15T00:30:15.716Z,1024.09
2023-02-15T00:31:15.662Z,1024.10
2023-02-15T00:32:16.363Z,1024.13
2023-02-15T00:33:15.563Z,1024.09
2023-02-15T00:34:15.537Z,1024.06
2023-02-15T00:35:15.859Z,1024.06
2023-02-15T00:36:15.528Z,1024.05
2023-02-15T00:37:15.574Z,1023.99
2023-02-15T00:38:15.481Z,1024.05
2023-02-15T00:39:15.528Z,1024.04
2023-02-15T00:40:15.455Z,1024.05
2023-02-15T00:41:15.431Z,1024.08
2023-02-15T00:42:15.461Z,1024.00
2023-02-15T00:43:15.441Z,1024.02
2023-02-15T00:44:15.465Z,1024.01
2023-02-15T00:45:17.513Z,1023.99
2023-02-15T00:46:15.529Z,1023.97
2023-02-15T00:47:15.427Z,1023.99
2023-02-15T00:48:15.452Z,1023.97
2023-02-15T00:49:15.724Z,1023.93
2023-02-15T00:50:15.363Z,1023.95
2023-02-15T00:51:15.325Z,1023.92
2023-02-15T00:52:15.333Z,1023.92
2023-02-15T00:53:15.288Z,1023.86
2023-02-15T00:54:15.313Z,1023.90
2023-02-15T00:55:15.292Z,1023.86
2023-02-15T00:56:15.270Z,1023.87
2023-02-15T00:57:15.751Z,1023.85
2023-02-15T00:58:16.430Z,1023.86
2023-02-15T00:59:15.207Z,1023.89
2023-02-15T01:00:15.307Z,1023.89
2023-02-15T01:01:15.206Z,1023.90
2023-02-15T01:02:15.228Z,1023.91
2023-02-15T01:03:15.162Z,1023.87
2023-02-15T01:04:15.243Z,1023.86
2023-02-15T01:05:15.134Z,1023.83
2023-02-15T01:06:15.168Z,1023.81
2023-02-15T01:07:15.141Z,1023.82
2023-02-15T01:08:15.450Z,1023.79
2023-02-15T01:09:15.128Z,1023.77
2023-02-15T01:10:15.111Z,1023.77
2023-02-15T01:11:15.073Z,1023.74
2023-02-15T01:12:15.075Z,1023.75
2023-02-15T01:13:15.124Z,1023.82
2023-02-15T01:14:15.190Z,1023.79
2023-02-15T01:15:15.242Z,1023.72
2023-02-15T01:16:15.087Z,1023.73
2023-02-15T01:17:15.034Z,1023.77
2023-02-15T01:18:15.006Z,1023.71
2023-02-15T01:19:14.984Z,1023.69
2023-02-15T01:20:15.025Z,1023.75
2023-02-15T01:21:14.951Z,1023.70
2023-02-15T01:22:15.692Z,1023.68
2023-02-15T01:23:15.255Z,1023.72
2023-02-15T01:24:14.949Z,1023.74
2023-02-15T01:25:14.920Z,1023.74
2023-02-15T01:26:14.939Z,1023.71
2023-02-15T01:27:14.882Z,1023.64
2023-02-15T01:28:15.938Z,1023.68
2023-02-15T01:29:14.881Z,1023.66
2023-02-15T01:30:14.916Z,1023.64
2023-02-15T01:31:14.949Z,1023.63
2023-02-15T01:32:14.834Z,1023.60
2023-02-15T01:33:15.701Z,1023.65
2023-02-15T01:34:14.885Z,1023.63
2023-02-15T01:35:14.870Z,1023.67
2023-02-15T01:36:15.868Z,1023.66
2023-02-15T01:37:14.744Z,1023.65
2023-02-15T01:38:14.722Z,1023.65
2023-02-15T01:39:14.759Z,1023.63
2023-02-15T01:40:15.596Z,1023.66
2023-02-15T01:41:14.728Z,1023.62
2023-02-15T01:42:14.720Z,1023.65
2023-02-15T01:43:14.687Z,1023.64
2023-02-15T01:44:14.728Z,1023.63
2023-02-15T01:45:15.456Z,1023.62
2023-02-15T01:46:14.687Z,1023.60
2023-02-15T01:47:14.652Z,1023.60
2023-02-15T01:48:14.663Z,1023.62
2023-02-15T01:49:14.781Z,1023.61
2023-02-15T01:50:14.672Z,1023.62
2023-02-15T01:51:14.564Z,1023.63
2023-02-15T01:52:15.017Z,1023.63
2023-02-15T01:53:15.766Z,1023.59
2023-02-15T01:54:14.569Z,1023.54
2023-02-15T01:55:14.556Z,1023.57
2023-02-15T01:56:14.494Z,1023.51
2023-02-15T01:57:14.497Z,1023.52
2023-02-15T01:58:14.512Z,1023.50
2023-02-15T01:59:14.499Z,1023.46
2023-02-15T02:00:14.490Z,1023.44
2023-02-15T02:01:14.513Z,1023.42
2023-02-15T02:02:14.463Z,1023.40
2023-02-15T02:03:14.443Z,1023.42
2023-02-15T02:04:14.444Z,1023.39
2023-02-15T02:05:14.530Z,1023.40
2023-02-15T02:06:14.388Z,1023.39
2023-02-15T02:07:14.387Z,1023.38
2023-02-15T02:08:14.381Z,1023.34
2023-02-15T02:09:14.337Z,1023.38
2023-02-15T02:10:14.343Z,1023.31
2023-02-15T02:11:14.475Z,1023.32
2023-02-15T02:12:14.299Z,1023.30
2023-02-15T02:13:14.366Z,1023.28
2023-02-15T02:14:15.275Z,1023.25
2023-02-15T02:15:14.355Z,1023.29
2023-02-15T02:16:14.264Z,1023.24
2023-02-15T02:17:14.248Z,1023.21
2023-02-15T02:18:14.254Z,1023.21
2023-02-15T02:19:14.226Z,1023.19
2023-02-15T02:20:14.270Z,1023.21
2023-02-15T02:21:14.214Z,1023.18
2023-02-15T02:22:14.210Z,1023.18
2023-02-15T02:23:14.169Z,1023.16
2023-02-15T02:24:14.155Z,1023.17
2023-02-15T02:25:14.152Z,1023.12
2023-02-15T02:26:14.178Z,1023.16
2023-02-15T02:27:14.291Z,1023.16
2023-02-15T02:28:14.137Z,1023.16
2023-02-15T02:29:14.123Z,1023.13
2023-02-15T02:30:14.146Z,1023.12
2023-02-15T02:31:14.163Z,1023.06
2023-02-15T02:32:14.076Z,1023.07
2023-02-15T02:33:14.026Z,1023.13
2023-02-15T02:34:14.046Z,1023.09
2023-02-15T02:35:14.042Z,1023.06
2023-02-15T02:36:14.045Z,1023.09
2023-02-15T02:37:14.005Z,1023.02
2023-02-15T02:38:13.974Z,1023.09
2023-02-15T02:39:14.026Z,1023.03
2023-02-15T02:40:13.972Z,1023.03
2023-02-15T02:41:13.926Z,1023.06
2023-02-15T02:42:13.935Z,1023.02
2023-02-15T02:43:13.930Z,1023.05
2023-02-15T02:44:13.967Z,1023.09
2023-02-15T02:45:13.933Z,1023.03
2023-02-15T02:46:13.981Z,1023.00
2023-02-15T02:47:13.891Z,1023.02
2023-02-15T02:48:13.919Z,1023.00
2023-02-15T02:49:13.825Z,1022.98
2023-02-15T02:50:13.870Z,1022.97
2023-02-15T02:51:13.861Z,1022.97
2023-02-15T02:52:14.457Z,1022.92
2023-02-15T02:53:13.817Z,1022.94
2023-02-15T02:54:13.796Z,1022.86
2023-02-15T02:55:13.803Z,1022.81
2023-02-15T02:56:13.766Z,1022.82
2023-02-15T02:57:13.767Z,1022.79
2023-02-15T02:58:13.780Z,1022.80
2023-02-15T02:59:13.770Z,1022.75
2023-02-15T03:00:13.699Z,1022.80
2023-02-15T03:01:13.715Z,1022.72
2023-02-15T03:02:13.907Z,1022.74
2023-02-15T03:03:13.700Z,1022.73
2023-02-15T03:04:13.664Z,1022.71
2023-02-15T03:05:13.669Z,1022.75
2023-02-15T03:06:13.666Z,1022.76
2023-02-15T03:07:13.652Z,1022.75
2023-02-15T03:08:13.628Z,1022.77
2023-02-15T03:09:13.620Z,1022.73
2023-02-15T03:10:13.573Z,1022.73
2023-02-15T03:11:13.575Z,1022.72
2023-02-15T03:12:13.625Z,1022.69
2023-02-15T03:13:13.581Z,1022.73
2023-02-15T03:14:13.536Z,1022.71
2023-02-15T03:15:14.056Z,1022.73
2023-02-15T03:16:13.690Z,1022.67
2023-02-15T03:17:13.543Z,1022.67
2023-02-15T03:18:13.496Z,1022.68
2023-02-15T03:19:13.541Z,1022.63
2023-02-15T03:20:13.441Z,1022.63
2023-02-15T03:21:13.423Z,1022.61
2023-02-15T03:22:13.468Z,1022.60
2023-02-15T03:23:13.445Z,1022.61
2023-02-15T03:24:14.907Z,1022.58
2023-02-15T03:25:13.451Z,1022.56
2023-02-15T03:26:13.387Z,1022.55
2023-02-15T03:27:14.419Z,1022.56
2023-02-15T03:28:13.393Z,1022.60
2023-02-15T03:29:13.378Z,1022.58
2023-02-15T03:30:13.414Z,1022.55
2023-02-15T03:31:13.499Z,1022.56
2023-02-15T03:32:13.439Z,1022.60
2023-02-15T03:33:13.320Z,1022.56
2023-02-15T03:34:13.319Z,1022.54
2023-02-15T03:35:13.339Z,1022.54
2023-02-15T03:36:13.319Z,1022.51
2023-02-15T03:37:13.241Z,1022.51
2023-02-15T03:38:13.217Z,1022.53
2023-02-15T03:39:13.269Z,1022.50
2023-02-15T03:40:13.228Z,1022.49
2023-02-15T03:41:13.219Z,1022.56
2023-02-15T03:42:13.200Z,1022.49
2023-02-15T03:43:13.167Z,1022.50
2023-02-15T03:44:13.492Z,1022.51
2023-02-15T03:45:13.204Z,1022.49
2023-02-15T03:46:13.256Z,1022.48
2023-02-15T03:47:13.180Z,1022.49
2023-02-15T03:48:13.938Z,1022.50
2023-02-15T03:49:13.088Z,1022.52
2023-02-15T03:50:13.088Z,1022.44
2023-02-15T03:51:13.078Z,1022.43
2023-02-15T03:52:13.134Z,1022.42
2023-02-15T03:53:13.058Z,1022.40
2023-02-15T03:54:13.027Z,1022.42
2023-02-15T03:55:13.069Z,1022.36
2023-02-15T03:56:13.108Z,1022.36
2023-02-15T03:57:13.091Z,1022.35
2023-02-15T03:58:12.963Z,1022.30
2023-02-15T03:59:12.980Z,1022.32
2023-02-15T04:00:13.838Z,1022.26
2023-02-15T04:01:13.101Z,1022.29
2023-02-15T04:02:12.988Z,1022.36
2023-02-15T04:03:12.985Z,1022.38
2023-02-15T04:04:12.887Z,1022.36
2023-02-15T04:05:12.961Z,1022.41
2023-02-15T04:06:12.932Z,1022.35
2023-02-15T04:07:12.890Z,1022.36
2023-02-15T04:08:12.870Z,1022.39
2023-02-15T04:09:12.846Z,1022.35
2023-02-15T04:10:12.859Z,1022.33
2023-02-15T04:11:12.856Z,1022.33
2023-02-15T04:12:12.827Z,1022.30
2023-02-15T04:13:12.851Z,1022.31
2023-02-15T04:14:12.916Z,1022.31
2023-02-15T04:15:12.796Z,1022.33
2023-02-15T04:16:12.871Z,1022.35
2023-02-15T04:17:12.739Z,1022.32
2023-02-15T04:18:13.684Z,1022.35
2023-02-15T04:19:12.708Z,1022.30
2023-02-15T04:20:13.017Z,1022.33
2023-02-15T04:21:12.749Z,1022.33
2023-02-15T04:22:13.748Z,1022.33
2023-02-15T04:23:12.658Z,1022.31
2023-02-15T04:24:12.797Z,1022.32
2023-02-15T04:25:12.656Z,1022.34
2023-02-15T04:26:12.648Z,1022.36
2023-02-15T04:27:12.938Z,1022.33
2023-02-15T04:28:12.617Z,1022.33
2023-02-15T04:29:12.610Z,1022.35
2023-02-15T04:30:13.555Z,1022.37
2023-02-15T04:31:12.648Z,1022.33
2023-02-15T04:32:13.388Z,1022.33
2023-02-15T04:33:12.565Z,1022.31
2023-02-15T04:34:12.603Z,1022.32
2023-02-15T04:35:13.475Z,1022.32
2023-02-15T04:36:12.614Z,1022.30
2023-02-15T04:37:13.324Z,1022.25
2023-02-15T04:38:12.494Z,1022.23
2023-02-15T04:39:12.570Z,1022.22
2023-02-15T04:40:13.550Z,1022.24
2023-02-15T04:41:12.433Z,1022.25
2023-02-15T04:42:12.504Z,1022.17
2023-02-15T04:43:12.430Z,1022.15
2023-02-15T04:44:12.440Z,1022.18
2023-02-15T04:45:12.377Z,1022.16
2023-02-15T04:46:12.494Z,1022.17
2023-02-15T04:47:13.386Z,1022.11
2023-02-15T04:48:12.345Z,1022.13
2023-02-15T04:49:12.379Z,1022.13
2023-02-15T04:50:12.529Z,1022.07
2023-02-15T04:51:13.519Z,1022.08
2023-02-15T04:52:12.332Z,1022.05
2023-02-15T04:53:13.202Z,1022.05
2023-02-15T04:54:12.314Z,1022.07
2023-02-15T04:55:12.266Z,1022.05
2023-02-15T04:56:12.963Z,1021.97
2023-02-15T04:57:12.417Z,1022.01
2023-02-15T04:58:13.300Z,1021.96
2023-02-15T04:59:12.765Z,1022.00
2023-02-15T05:00:13.166Z,1021.96
2023-02-15T05:01:12.264Z,1021.96
2023-02-15T05:02:12.177Z,1021.93
2023-02-15T05:03:13.386Z,1021.92
2023-02-15T05:04:13.354Z,1021.93
2023-02-15T05:05:12.151Z,1021.92
2023-02-15T05:06:12.246Z,1021.88
2023-02-15T05:07:12.171Z,1021.93
2023-02-15T05:08:12.121Z,1021.89
2023-02-15T05:09:13.333Z,1021.87
2023-02-15T05:10:12.078Z,1021.92
2023-02-15T05:11:12.057Z,1021.88
2023-02-15T05:12:12.052Z,1021.88
2023-02-15T05:13:12.157Z,1021.88
2023-02-15T05:14:12.065Z,1021.84
2023-02-15T05:15:13.012Z,1021.85
2023-02-15T05:16:12.091Z,1021.82
2023-02-15T05:17:12.111Z,1021.85
2023-02-15T05:18:12.335Z,1021.81
2023-02-15T05:19:11.989Z,1021.79
2023-02-15T05:20:12.065Z,1021.78
2023-02-15T05:21:11.980Z,1021.76
2023-02-15T05:22:11.934Z,1021.75
2023-02-15T05:23:11.977Z,1021.70
2023-02-15T05:24:11.937Z,1021.72
2023-02-15T05:25:11.970Z,1021.68
2023-02-15T05:26:11.949Z,1021.69
2023-02-15T05:27:11.903Z,1021.70
2023-02-15T05:28:12.360Z,1021.68
2023-02-15T05:29:12.875Z,1021.67
2023-02-15T05:30:11.955Z,1021.70
2023-02-15T05:31:12.194Z,1021.72
2023-02-15T05:32:11.927Z,1021.70
2023-02-15T05:33:13.078Z,1021.73
2023-02-15T05:34:11.911Z,1021.69
2023-02-15T05:35:11.795Z,1021.71
2023-02-15T05:36:11.922Z,1021.70
2023-02-15T05:37:11.770Z,1021.70
2023-02-15T05:38:11.911Z,1021.71
2023-02-15T05:39:11.858Z,1021.70
2023-02-15T05:40:11.766Z,1021.69
2023-02-15T05:41:11.849Z,1021.71
2023-02-15T05:42:12.813Z,1021.68
2023-02-15T05:43:11.684Z,1021.73
2023-02-15T05:44:11.926Z,1021.74
2023-02-15T05:45:12.516Z,1021.71
2023-02-15T05:46:11.731Z,1021.72
2023-02-15T05:47:11.691Z,1021.73
2023-02-15T05:48:11.669Z,1021.71
2023-02-15T05:49:12.556Z,1021.73
2023-02-15T05:50:11.671Z,1021.70
2023-02-15T05:51:12.894Z,1021.71
2023-02-15T05:52:12.787Z,1021.75
2023-02-15T05:53:11.700Z,1021.75
2023-02-15T05:54:12.597Z,1021.78
2023-02-15T05:55:11.572Z,1021.78
2023-02-15T05:56:11.642Z,1021.82
2023-02-15T05:57:11.609Z,1021.79
2023-02-15T05:58:12.727Z,1021.75
2023-02-15T05:59:11.526Z,1021.83
2023-02-15T06:00:11.642Z,1021.78
2023-02-15T06:01:11.649Z,1021.81
2023-02-15T06:02:11.552Z,1021.77
2023-02-15T06:03:12.202Z,1021.74
2023-02-15T06:04:11.511Z,1021.78
2023-02-15T06:05:12.446Z,1021.75
2023-02-15T06:06:12.470Z,1021.79
2023-02-15T06:07:13.170Z,1021.73
2023-02-15T06:08:11.581Z,1021.76
2023-02-15T06:09:11.410Z,1021.75
2023-02-15T06:10:11.727Z,1021.76
2023-02-15T06:11:11.401Z,1021.77
2023-02-15T06:12:12.407Z,1021.79
2023-02-15T06:13:11.307Z,1021.84
2023-02-15T06:14:11.879Z,1021.82
2023-02-15T06:15:12.121Z,1021.78
2023-02-15T06:16:11.890Z,1021.77
2023-02-15T06:17:12.445Z,1021.78
2023-02-15T06:18:11.265Z,1021.77
2023-02-15T06:19:11.326Z,1021.76
2023-02-15T06:20:11.394Z,1021.76
2023-02-15T06:21:11.302Z,1021.73
2023-02-15T06:22:12.552Z,1021.69
2023-02-15T06:23:11.183Z,1021.69
2023-02-15T06:24:11.906Z,1021.67
2023-02-15T06:25:11.597Z,1021.69
2023-02-15T06:26:12.090Z,1021.68
2023-02-15T06:27:11.212Z,1021.67
2023-02-15T06:28:11.243Z,1021.70
2023-02-15T06:29:11.143Z,1021.69
2023-02-15T06:30:11.231Z,1021.72
2023-02-15T06:31:11.143Z,1021.71
2023-02-15T06:32:11.133Z,1021.67
2023-02-15T06:33:11.132Z,1021.69
2023-02-15T06:34:11.833Z,1021.67
2023-02-15T06:35:11.048Z,1021.69
2023-02-15T06:36:11.303Z,1021.69
2023-02-15T06:37:12.040Z,1021.63
2023-02-15T06:38:11.050Z,1021.64
2023-02-15T06:39:10.990Z,1021.62
2023-02-15T06:40:11.651Z,1021.57
2023-02-15T06:41:11.041Z,1021.63
2023-02-15T06:42:11.030Z,1021.62
2023-02-15T06:43:11.047Z,1021.61
2023-02-15T06:44:11.122Z,1021.61
2023-02-15T06:45:11.063Z,1021.55
2023-02-15T06:46:10.963Z,1021.59
2023-02-15T06:47:12.117Z,1021.54
2023-02-15T06:48:10.901Z,1021.51
2023-02-15T06:49:10.917Z,1021.48
2023-02-15T06:50:11.074Z,1021.51
2023-02-15T06:51:11.739Z,1021.49
2023-02-15T06:52:13.983Z,1021.49
2023-02-15T06:53:10.901Z,1021.50
2023-02-15T06:54:11.083Z,1021.42
2023-02-15T06:55:11.071Z,1021.47
2023-02-15T06:56:11.085Z,1021.43
2023-02-15T06:57:10.828Z,1021.45
2023-02-15T06:58:11.574Z,1021.43
2023-02-15T06:59:11.488Z,1021.45
2023-02-15T07:00:10.762Z,1021.47
2023-02-15T07:01:11.694Z,1021.45
2023-02-15T07:02:11.705Z,1021.46
2023-02-15T07:03:10.743Z,1021.48
2023-02-15T07:04:10.835Z,1021.47
2023-02-15T07:05:10.723Z,1021.53
2023-02-15T07:06:11.829Z,1021.48
2023-02-15T07:07:11.729Z,1021.47
2023-02-15T07:08:10.798Z,1021.47
2023-02-15T07:09:10.642Z,1021.44
2023-02-15T07:10:10.761Z,1021.42
2023-02-15T07:11:11.239Z,1021.39
2023-02-15T07:12:10.584Z,1021.44
2023-02-15T07:13:11.555Z,1021.43
2023-02-15T07:14:10.719Z,1021.41
2023-02-15T07:15:10.657Z,1021.39
2023-02-15T07:16:10.615Z,1021.44
2023-02-15T07:17:32.667Z,1021.41
2023-02-15T07:18:11.497Z,1021.41
2023-02-15T07:19:11.596Z,1021.38
2023-02-15T07:20:10.694Z,1021.31
2023-02-15T07:21:10.674Z,1021.39
2023-02-15T07:22:11.355Z,1021.37
2023-02-15T07:23:11.207Z,1021.41
2023-02-15T07:24:10.491Z,1021.37
2023-02-15T07:25:11.542Z,1021.38
2023-02-15T07:26:10.438Z,1021.41
2023-02-15T07:27:12.222Z,1021.41
2023-02-15T07:28:10.667Z,1021.42
2023-02-15T07:29:10.591Z,1021.45
2023-02-15T07:30:10.559Z,1021.45
2023-02-15T07:31:10.457Z,1021.47
2023-02-15T07:32:10.422Z,1021.44
2023-02-15T07:33:11.277Z,1021.50
2023-02-15T07:34:11.176Z,1021.47
2023-02-15T07:35:10.688Z,1021.52
2023-02-15T07:36:10.284Z,1021.52
2023-02-15T07:37:11.195Z,1021.52
2023-02-15T07:38:10.280Z,1021.53
2023-02-15T07:39:10.505Z,1021.56
2023-02-15T07:40:11.267Z,1021.51
2023-02-15T07:41:10.278Z,1021.58
2023-02-15T07:42:10.422Z,1021.57
2023-02-15T07:43:10.478Z,1021.54
2023-02-15T07:44:11.658Z,1021.55
2023-02-15T07:45:11.127Z,1021.55
2023-02-15T07:46:10.558Z,1021.54
2023-02-15T07:47:10.385Z,1021.54
2023-02-15T07:48:10.719Z,1021.52
2023-02-15T07:49:11.087Z,1021.52
2023-02-15T07:50:10.319Z,1021.49
2023-02-15T07:51:10.292Z,1021.49
2023-02-15T07:52:10.993Z,1021.47
2023-02-15T07:53:10.598Z,1021.50
2023-02-15T07:54:10.070Z,1021.48
2023-02-15T07:55:11.211Z,1021.42
2023-02-15T07:56:10.136Z,1021.47
2023-02-15T07:57:10.111Z,1021.44
2023-02-15T07:58:10.930Z,1021.48
2023-02-15T07:59:10.826Z,1021.49
2023-02-15T08:00:11.019Z,1021.47
2023-02-15T08:01:11.147Z,1021.53
2023-02-15T08:02:10.100Z,1021.48
2023-02-15T08:03:10.361Z,1021.49
2023-02-15T08:04:10.015Z,1021.49
2023-02-15T08:05:09.916Z,1021.48
2023-02-15T08:06:09.942Z,1021.47
2023-02-15T08:07:10.252Z,1021.45
2023-02-15T08:08:09.906Z,1021.43
2023-02-15T08:09:10.167Z,1021.46
2023-02-15T08:10:09.850Z,1021.46
2023-02-15T08:11:10.118Z,1021.44
2023-02-15T08:12:10.021Z,1021.45
2023-02-15T08:13:09.861Z,1021.44
2023-02-15T08:14:09.818Z,1021.48
2023-02-15T08:15:09.853Z,1021.49
2023-02-15T08:16:11.421Z,1021.44
2023-02-15T08:17:09.861Z,1021.43
2023-02-15T08:18:09.866Z,1021.43
2023-02-15T08:19:09.752Z,1021.40
2023-02-15T08:20:09.746Z,1021.43
2023-02-15T08:21:10.771Z,1021.47
2023-02-15T08:22:09.807Z,1021.46
2023-02-15T08:23:09.768Z,1021.39
2023-02-15T08:24:09.997Z,1021.41
2023-02-15T08:25:09.683Z,1021.38
2023-02-15T08:26:09.718Z,1021.35
2023-02-15T08:27:09.746Z,1021.35
2023-02-15T08:28:09.788Z,1021.31
2023-02-15T08:29:09.677Z,1021.32
2023-02-15T08:30:10.510Z,1021.26
2023-02-15T08:31:09.737Z,1021.27
2023-02-15T08:32:09.778Z,1021.24
2023-02-15T08:33:09.610Z,1021.26
2023-02-15T08:34:10.582Z,1021.21
2023-02-15T08:35:09.790Z,1021.26
2023-02-15T08:36:09.763Z,1021.18
2023-02-15T08:37:10.577Z,1021.17
2023-02-15T08:38:09.585Z,1021.15
2023-02-15T08:39:09.656Z,1021.17
2023-02-15T08:40:10.511Z,1021.13
2023-02-15T08:41:09.527Z,1021.08
2023-02-15T08:42:10.443Z,1021.07
2023-02-15T08:43:09.469Z,1021.08
2023-02-15T08:44:10.894Z,1021.04
2023-02-15T08:45:09.657Z,1021.07
2023-02-15T08:46:09.672Z,1021.09
2023-02-15T08:47:09.477Z,1021.03
2023-02-15T08:48:09.509Z,1021.07
2023-02-15T08:49:09.568Z,1021.09
2023-02-15T08:50:09.574Z,1021.09
2023-02-15T08:51:09.575Z,1021.09
2023-02-15T08:52:10.348Z,1021.06
2023-02-15T08:53:09.395Z,1021.00
2023-02-15T08:54:09.312Z,1021.05
2023-02-15T08:55:09.488Z,1021.00
2023-02-15T08:56:09.310Z,1020.96
2023-02-15T08:57:09.288Z,1020.94
2023-02-15T08:58:10.291Z,1020.98
2023-02-15T08:59:09.265Z,1020.90
2023-02-15T09:00:09.314Z,1020.90
2023-02-15T09:01:09.322Z,1020.81
2023-02-15T09:02:09.453Z,1020.78
2023-02-15T09:03:09.333Z,1020.83
2023-02-15T09:04:10.230Z,1020.78
2023-02-15T09:05:09.204Z,1020.80
2023-02-15T09:06:09.611Z,1020.74
2023-02-15T09:07:09.162Z,1020.83
2023-02-15T09:08:09.180Z,1020.78
2023-02-15T09:09:09.324Z,1020.82
2023-02-15T09:10:09.151Z,1020.79
2023-02-15T09:11:09.133Z,1020.79
2023-02-15T09:12:09.108Z,1020.79
2023-02-15T09:13:09.336Z,1020.86
2023-02-15T09:14:09.120Z,1020.84
2023-02-15T09:15:09.138Z,1020.86
2023-02-15T09:16:09.093Z,1020.82
2023-02-15T09:17:10.004Z,1020.84
2023-02-15T09:18:09.042Z,1020.82
2023-02-15T09:19:09.810Z,1020.82
2023-02-15T09:20:09.122Z,1020.85
2023-02-15T09:21:10.126Z,1020.83
2023-02-15T09:22:09.003Z,1020.79
2023-02-15T09:23:16.222Z,1020.82
2023-02-15T09:24:10.147Z,1020.83
2023-02-15T09:25:08.994Z,1020.87
2023-02-15T09:26:09.154Z,1020.82
2023-02-15T09:27:09.331Z,1020.84
2023-02-15T09:28:11.044Z,1020.83
2023-02-15T09:29:08.881Z,1020.82
2023-02-15T09:30:09.007Z,1020.83
2023-02-15T09:31:08.942Z,1020.81
2023-02-15T09:32:09.200Z,1020.86
2023-02-15T09:33:09.997Z,1020.87
2023-02-15T09:34:09.177Z,1020.90
2023-02-15T09:35:09.870Z,1020.87
2023-02-15T09:36:08.808Z,1020.84
2023-02-15T09:37:09.009Z,1020.85
2023-02-15T09:38:08.882Z,1020.80
2023-02-15T09:39:08.970Z,1020.83
2023-02-15T09:40:09.300Z,1020.85
2023-02-15T09:41:08.737Z,1020.83
2023-02-15T09:42:09.094Z,1020.88
2023-02-15T09:43:08.750Z,1020.83
2023-02-15T09:44:08.742Z,1020.79
2023-02-15T09:45:08.942Z,1020.78
2023-02-15T09:46:09.036Z,1020.80
2023-02-15T09:47:09.044Z,1020.80
2023-02-15T09:48:09.035Z,1020.77
2023-02-15T09:49:08.737Z,1020.78
2023-02-15T09:50:08.806Z,1020.77
2023-02-15T09:51:09.813Z,1020.76
2023-02-15T09:52:08.640Z,1020.80
2023-02-15T09:53:08.893Z,1020.83
2023-02-15T09:54:08.723Z,1020.83
2023-02-15T09:55:09.444Z,1020.82
2023-02-15T09:56:09.482Z,1020.84
2023-02-15T09:57:08.545Z,1020.83
2023-02-15T09:58:08.549Z,1020.87
2023-02-15T09:59:08.513Z,1020.83
2023-02-15T10:00:08.620Z,1020.82
2023-02-15T10:01:09.089Z,1020.79
2023-02-15T10:02:08.515Z,1020.80
2023-02-15T10:03:08.742Z,1020.83
2023-02-15T10:04:09.128Z,1020.82
2023-02-15T10:05:08.619Z,1020.78
2023-02-15T10:06:08.616Z,1020.80
2023-02-15T10:07:09.308Z,1020.77
2023-02-15T10:08:08.855Z,1020.79
2023-02-15T10:09:08.394Z,1020.82
2023-02-15T10:10:08.438Z,1020.81
2023-02-15T10:11:08.422Z,1020.85
2023-02-15T10:12:08.477Z,1020.89
2023-02-15T10:13:08.416Z,1020.87
2023-02-15T10:14:08.389Z,1020.84
2023-02-15T10:15:08.372Z,1020.83
2023-02-15T10:16:08.566Z,1020.87
2023-02-15T10:17:08.558Z,1020.85
2023-02-15T10:18:08.469Z,1020.82
2023-02-15T10:19:09.232Z,1020.82
2023-02-15T10:20:08.846Z,1020.82
2023-02-15T10:21:09.495Z,1020.81
2023-02-15T10:22:09.085Z,1020.79
2023-02-15T10:23:08.286Z,1020.83
2023-02-15T10:24:08.238Z,1020.78
2023-02-15T10:25:08.425Z,1020.79
2023-02-15T10:26:09.112Z,1020.77
2023-02-15T10:27:08.197Z,1020.77
2023-02-15T10:28:09.334Z,1020.79
2023-02-15T10:29:09.239Z,1020.82
2023-02-15T10:30:09.243Z,1020.79
2023-02-15T10:31:09.190Z,1020.80
2023-02-15T10:32:08.636Z,1020.79
2023-02-15T10:33:08.515Z,1020.79
2023-02-15T10:34:09.045Z,1020.77
2023-02-15T10:35:09.169Z,1020.79
2023-02-15T10:36:09.038Z,1020.79
2023-02-15T10:37:08.044Z,1020.74
2023-02-15T10:38:08.059Z,1020.69
2023-02-15T10:39:08.064Z,1020.69
2023-02-15T10:40:08.008Z,1020.66
2023-02-15T10:41:08.091Z,1020.65
2023-02-15T10:42:08.960Z,1020.64
2023-02-15T10:43:08.128Z,1020.63
2023-02-15T10:44:08.822Z,1020.66
2023-02-15T10:45:08.027Z,1020.61
2023-02-15T10:46:08.371Z,1020.60
2023-02-15T10:47:12.146Z,1020.55
2023-02-15T10:48:07.920Z,1020.54
2023-02-15T10:49:08.284Z,1020.56
2023-02-15T10:50:07.990Z,1020.58
2023-02-15T10:51:08.675Z,1020.56
2023-02-15T10:52:09.077Z,1020.50
2023-02-15T10:53:08.149Z,1020.51
2023-02-15T10:54:07.898Z,1020.59
2023-02-15T10:55:07.845Z,1020.55
2023-02-15T10:56:07.929Z,1020.55
2023-02-15T10:57:08.014Z,1020.53
2023-02-15T10:58:09.008Z,1020.53
2023-02-15T10:59:07.777Z,1020.51
2023-02-15T11:00:08.712Z,1020.50
2023-02-15T11:01:07.800Z,1020.52
2023-02-15T11:02:08.678Z,1020.50
2023-02-15T11:03:08.457Z,1020.48
2023-02-15T11:04:07.699Z,1020.47
2023-02-15T11:05:07.815Z,1020.50
2023-02-15T11:06:08.750Z,1020.51
2023-02-15T11:07:08.081Z,1020.55
2023-02-15T11:08:07.716Z,1020.52
2023-02-15T11:09:08.224Z,1020.51
2023-02-15T11:10:07.864Z,1020.48
2023-02-15T11:11:08.547Z,1020.48
2023-02-15T11:12:08.692Z,1020.46
2023-02-15T11:13:07.665Z,1020.49
2023-02-15T11:14:07.558Z,1020.49
2023-02-15T11:15:07.545Z,1020.46
2023-02-15T11:16:07.624Z,1020.49
2023-02-15T11:17:07.544Z,1020.44
2023-02-15T11:18:07.579Z,1020.43
2023-02-15T11:19:07.613Z,1020.42
2023-02-15T11:20:07.507Z,1020.46
2023-02-15T11:21:08.469Z,1020.44
2023-02-15T11:22:07.495Z,1020.43
2023-02-15T11:23:08.667Z,1020.40
2023-02-15T11:24:07.472Z,1020.39
2023-02-15T11:25:08.462Z,1020.42
2023-02-15T11:26:07.584Z,1020.42
2023-02-15T11:27:08.384Z,1020.38
2023-02-15T11:28:08.180Z,1020.44
2023-02-15T11:29:08.592Z,1020.42
2023-02-15T11:30:07.380Z,1020.44
2023-02-15T11:31:08.499Z,1020.46
2023-02-15T11:32:07.480Z,1020.43
2023-02-15T11:33:07.578Z,1020.45
2023-02-15T11:34:07.449Z,1020.46
2023-02-15T11:35:07.477Z,1020.42
2023-02-15T11:36:08.444Z,1020.42
2023-02-15T11:37:07.356Z,1020.38
2023-02-15T11:38:07.266Z,1020.40
2023-02-15T11:39:07.477Z,1020.39
2023-02-15T11:40:08.242Z,1020.38
2023-02-15T11:41:07.324Z,1020.32
2023-02-15T11:42:07.280Z,1020.32
2023-02-15T11:43:08.182Z,1020.29
2023-02-15T11:44:08.173Z,1020.25
2023-02-15T11:45:07.200Z,1020.21
2023-02-15T11:46:07.300Z,1020.24
2023-02-15T11:47:07.152Z,1020.23
2023-02-15T11:48:07.124Z,1020.21
2023-02-15T11:49:07.137Z,1020.20
2023-02-15T11:50:07.146Z,1020.16
2023-02-15T11:51:08.084Z,1020.16
2023-02-15T11:52:07.164Z,1020.15
2023-02-15T11:53:07.272Z,1020.13
2023-02-15T11:54:08.231Z,1020.18
2023-02-15T11:55:07.137Z,1020.13
2023-02-15T11:56:07.815Z,1020.09
2023-02-15T11:57:07.953Z,1020.13
2023-02-15T11:58:07.061Z,1020.10
2023-02-15T11:59:07.032Z,1020.06
2023-02-15T12:00:07.067Z,1020.11
2023-02-15T12:01:07.317Z,1020.12
2023-02-15T12:02:06.983Z,1020.08
2023-02-15T12:03:07.957Z,1020.07
2023-02-15T12:04:07.551Z,1020.07
2023-02-15T12:05:06.980Z,1020.08